createdAt,value
2022-09-04T00:00:03.683Z,58.26
2022-09-04T00:02:55.712Z,58.97
2022-09-04T00:05:28.803Z,59.01
2022-09-04T00:08:20.660Z,58.20
2022-09-04T00:11:04.313Z,58.46
2022-09-04T00:13:44.179Z,58.76
2022-09-04T00:16:22.993Z,59.19
2022-09-04T00:18:57.538Z,58.46
2022-09-04T00:21:39.828Z,57.77
2022-09-04T00:24:15.553Z,57.27
2022-09-04T00:27:11.602Z,58.61
2022-09-04T00:30:02.337Z,58.99
2022-09-04T00:32:38.509Z,57.83
2022-09-04T00:35:15.575Z,57.23
2022-09-04T00:38:02.583Z,57.81
2022-09-04T00:40:37.377Z,59.19
2022-09-04T00:43:24.884Z,58.73
2022-09-04T00:46:10.126Z,59.15
2022-09-04T00:48:56.594Z,59.72
2022-09-04T00:51:51.898Z,60.19
2022-09-04T00:54:26.729Z,59.71
2022-09-04T00:57:21.343Z,60.46
2022-09-04T01:00:16.694Z,59.92
2022-09-04T01:03:16.003Z,60.38
2022-09-04T01:06:06.874Z,59.70
2022-09-04T01:08:56.282Z,60.56
2022-09-04T01:11:39.990Z,60.03
2022-09-04T01:14:29.605Z,59.97
2022-09-04T01:17:12.574Z,59.31
2022-09-04T01:20:01.569Z,58.88
2022-09-04T01:23:12.229Z,59.32
2022-09-04T01:26:04.386Z,58.98
2022-09-04T01:28:40.482Z,59.77
2022-09-04T01:31:20.326Z,60.57
2022-09-04T01:34:27.159Z,59.60
2022-09-04T01:37:03.593Z,60.97
2022-09-04T01:39:33.766Z,60.16
2022-09-04T01:42:12.229Z,60.51
2022-09-04T01:44:38.572Z,59.38
2022-09-04T01:47:17.213Z,60.87
2022-09-04T01:49:50.522Z,59.78
2022-09-04T01:52:48.880Z,59.25
2022-09-04T01:55:26.737Z,59.22
2022-09-04T01:58:07.320Z,59.42
2022-09-04T02:01:02.552Z,59.57
2022-09-04T02:03:28.977Z,59.65
2022-09-04T02:06:41.930Z,60.02
2022-09-04T02:09:19.070Z,61.07
2022-09-04T02:11:51.231Z,60.55
2022-09-04T02:14:47.580Z,61.75
2022-09-04T02:17:23.962Z,61.82
2022-09-04T02:20:22.539Z,62.00
2022-09-04T02:22:59.709Z,62.14
2022-09-04T02:25:36.603Z,62.23
2022-09-04T02:28:19.330Z,62.17
2022-09-04T02:31:05.266Z,61.96
2022-09-04T02:33:40.443Z,61.30
2022-09-04T02:36:33.805Z,61.14
2022-09-04T02:39:35.702Z,61.38
2022-09-04T02:42:30.781Z,61.32
2022-09-04T02:45:09.671Z,61.54
2022-09-04T02:48:05.542Z,61.48
2022-09-04T02:50:53.263Z,61.31
2022-09-04T02:53:30.671Z,62.31
2022-09-04T02:56:25.078Z,61.87
2022-09-04T02:59:11.073Z,61.68
2022-09-04T03:02:04.501Z,62.29
2022-09-04T03:04:52.499Z,62.16
2022-09-04T03:07:29.167Z,62.05
2022-09-04T03:10:08.955Z,62.32
2022-09-04T03:12:54.923Z,62.66
2022-09-04T03:15:38.537Z,62.85
2022-09-04T03:18:17.090Z,63.43
2022-09-04T03:20:51.914Z,63.67
2022-09-04T03:23:34.869Z,63.39
2022-09-04T03:26:13.358Z,62.41
2022-09-04T03:29:00.982Z,62.47
2022-09-04T03:31:32.963Z,61.88
2022-09-04T03:34:07.625Z,62.19
2022-09-04T03:36:49.574Z,62.50
2022-09-04T03:39:43.264Z,63.36
2022-09-04T03:42:22.453Z,63.57
2022-09-04T03:45:03.953Z,63.96
2022-09-04T03:48:07.732Z,63.94
2022-09-04T03:50:47.926Z,64.03
2022-09-04T03:53:29.534Z,63.57
2022-09-04T03:56:12.654Z,63.50
2022-09-04T03:59:04.677Z,64.27
2022-09-04T04:01:30.993Z,64.37
2022-09-04T04:04:34.240Z,64.69
2022-09-04T04:07:17.691Z,65.02
2022-09-04T04:10:22.634Z,64.66
2022-09-04T04:13:01.278Z,64.28
2022-09-04T04:16:01.156Z,63.58
2022-09-04T04:18:42.405Z,63.02
2022-09-04T04:21:35.982Z,62.68
2022-09-04T04:24:39.511Z,63.29
2022-09-04T04:27:44.074Z,63.18
2022-09-04T04:30:14.933Z,62.20
2022-09-04T04:32:41.232Z,62.15
2022-09-04T04:35:16.333Z,62.01
2022-09-04T04:37:53.317Z,61.98
2022-09-04T04:40:45.215Z,61.83
2022-09-04T04:43:49.478Z,62.20
2022-09-04T04:46:26.954Z,61.56
2022-09-04T04:49:12.377Z,63.12
2022-09-04T04:52:11.575Z,62.23
2022-09-04T04:55:15.854Z,63.34
2022-09-04T04:58:00.581Z,63.15
2022-09-04T05:00:40.059Z,63.45
2022-09-04T05:03:19.046Z,62.71
2022-09-04T05:06:04.205Z,63.38
2022-09-04T05:08:33.508Z,62.66
2022-09-04T05:11:30.106Z,63.30
2022-09-04T05:14:23.997Z,62.21
2022-09-04T05:17:05.233Z,63.04
2022-09-04T05:19:40.854Z,62.83
2022-09-04T05:22:40.749Z,62.89
2022-09-04T05:25:18.601Z,63.08
2022-09-04T05:28:16.039Z,62.92
2022-09-04T05:30:59.200Z,62.94
2022-09-04T05:33:32.172Z,63.27
2022-09-04T05:36:08.737Z,63.46
2022-09-04T05:38:45.911Z,63.58
2022-09-04T05:41:31.070Z,63.68
2022-09-04T05:44:11.061Z,64.63
2022-09-04T05:47:09.886Z,63.89
2022-09-04T05:50:08.266Z,64.01
2022-09-04T05:52:37.529Z,64.51
2022-09-04T05:55:16.153Z,64.54
2022-09-04T05:57:54.601Z,64.39
2022-09-04T06:00:21.922Z,65.35
2022-09-04T06:03:10.268Z,65.09
2022-09-04T06:05:58.402Z,65.36
2022-09-04T06:09:16.199Z,65.12
2022-09-04T06:11:57.146Z,65.13
2022-09-04T06:14:34.513Z,65.94
2022-09-04T06:17:28.635Z,65.71
2022-09-04T06:20:14.259Z,65.37
2022-09-04T06:23:02.430Z,66.04
2022-09-04T06:25:41.551Z,66.40
2022-09-04T06:28:29.818Z,66.08
2022-09-04T06:31:27.566Z,65.91
2022-09-04T06:34:12.718Z,65.68
2022-09-04T06:36:57.870Z,65.58
2022-09-04T06:39:40.464Z,64.74
2022-09-04T06:42:31.486Z,64.66
2022-09-04T06:45:06.148Z,64.07
2022-09-04T06:47:46.643Z,64.33
2022-09-04T06:50:42.466Z,65.41
2022-09-04T06:53:53.248Z,64.90
2022-09-04T06:56:36.230Z,65.25
2022-09-04T06:59:08.697Z,64.43
2022-09-04T07:02:06.850Z,63.39
2022-09-04T07:05:14.443Z,62.88
2022-09-04T07:07:56.082Z,63.08
2022-09-04T07:10:35.276Z,62.43
2022-09-04T07:13:23.526Z,61.67
2022-09-04T07:16:32.511Z,61.17
2022-09-04T07:19:37.190Z,61.22
2022-09-04T07:22:26.752Z,61.47
2022-09-04T07:25:18.376Z,62.22
2022-09-04T07:27:58.003Z,62.39
2022-09-04T07:30:27.975Z,62.90
2022-09-04T07:32:54.363Z,63.49
2022-09-04T07:35:30.665Z,62.75
2022-09-04T07:38:21.802Z,62.96
2022-09-04T07:40:53.253Z,62.92
2022-09-04T07:43:34.898Z,62.37
2022-09-04T07:46:15.373Z,60.95
2022-09-04T07:48:50.981Z,60.43
2022-09-04T07:51:25.883Z,60.55
2022-09-04T07:54:29.561Z,60.92
2022-09-04T07:57:11.011Z,61.70
2022-09-04T08:00:08.195Z,61.50
2022-09-04T08:02:38.851Z,61.26
2022-09-04T08:05:14.450Z,60.32
2022-09-04T08:07:41.153Z,59.83
2022-09-04T08:10:36.421Z,58.81
2022-09-04T08:13:31.584Z,58.74
2022-09-04T08:16:14.756Z,57.69
2022-09-04T08:18:52.989Z,57.94
2022-09-04T08:21:28.943Z,57.82
2022-09-04T08:24:08.287Z,57.83
2022-09-04T08:26:59.900Z,57.49
2022-09-04T08:29:50.560Z,57.43
2022-09-04T08:32:53.234Z,57.33
2022-09-04T08:35:37.178Z,57.40
2022-09-04T08:38:12.583Z,57.25
2022-09-04T08:40:45.104Z,56.38
2022-09-04T08:43:24.838Z,56.48
2022-09-04T08:46:15.757Z,55.00
2022-09-04T08:49:11.517Z,54.14
2022-09-04T08:52:15.160Z,53.34
2022-09-04T08:54:59.076Z,53.40
2022-09-04T08:57:47.202Z,53.01
2022-09-04T09:00:19.540Z,52.36
2022-09-04T09:03:25.218Z,51.84
2022-09-04T09:06:10.383Z,51.15
2022-09-04T09:09:01.566Z,50.35
2022-09-04T09:12:04.088Z,50.58
2022-09-04T09:15:10.164Z,50.11
2022-09-04T09:17:45.050Z,49.01
2022-09-04T09:20:49.409Z,49.73
2022-09-04T09:23:19.419Z,49.46
2022-09-04T09:25:53.000Z,48.31
2022-09-04T09:28:40.333Z,49.46
2022-09-04T09:31:12.806Z,48.86
2022-09-04T09:34:00.492Z,49.12
2022-09-04T09:36:52.168Z,47.56
2022-09-04T09:39:55.820Z,48.23
2022-09-04T09:42:44.034Z,47.74
2022-09-04T09:45:29.099Z,47.71
2022-09-04T09:48:25.854Z,46.96
2022-09-04T09:51:06.748Z,46.50
2022-09-04T09:53:45.053Z,46.08
2022-09-04T09:56:41.422Z,45.82
2022-09-04T09:59:40.914Z,45.89
2022-09-04T10:02:13.286Z,45.09
2022-09-04T10:05:24.463Z,43.67
2022-09-04T10:07:54.011Z,44.35
2022-09-04T10:10:46.334Z,44.12
2022-09-04T10:13:27.713Z,43.54
2022-09-04T10:16:17.461Z,43.41
2022-09-04T10:18:52.832Z,43.43
2022-09-04T10:21:50.973Z,43.04
2022-09-04T10:24:44.563Z,43.40
2022-09-04T10:27:27.622Z,43.39
2022-09-04T10:30:14.566Z,43.73
2022-09-04T10:33:08.024Z,43.54
2022-09-04T10:35:53.327Z,42.56
2022-09-04T10:38:59.119Z,42.18
2022-09-04T10:41:35.198Z,42.25
2022-09-04T10:44:20.065Z,41.70
2022-09-04T10:47:06.995Z,41.40
2022-09-04T10:49:36.731Z,39.99
2022-09-04T10:52:30.957Z,39.70
2022-09-04T10:55:19.967Z,38.93
2022-09-04T10:58:10.526Z,39.11
2022-09-04T11:00:54.728Z,38.32
2022-09-04T11:03:43.288Z,37.95
2022-09-04T11:06:59.218Z,36.63
2022-09-04T11:09:40.409Z,36.66
2022-09-04T11:12:25.490Z,37.12
2022-09-04T11:15:13.645Z,36.28
2022-09-04T11:18:12.306Z,36.19
2022-09-04T11:21:14.874Z,35.26
2022-09-04T11:23:56.330Z,35.36
2022-09-04T11:27:06.010Z,37.06
2022-09-04T11:29:55.739Z,37.39
2022-09-04T11:32:37.277Z,35.75
2022-09-04T11:35:26.597Z,34.03
2022-09-04T11:38:01.226Z,34.24
2022-09-04T11:40:42.702Z,34.48
2022-09-04T11:43:26.208Z,33.94
2022-09-04T11:46:32.070Z,32.96
2022-09-04T11:49:16.629Z,33.62
2022-09-04T11:52:04.109Z,33.71
2022-09-04T11:54:51.628Z,31.62
2022-09-04T11:57:40.425Z,32.23
2022-09-04T12:00:17.701Z,31.77
2022-09-04T12:03:00.805Z,31.58
2022-09-04T12:05:50.679Z,31.97
2022-09-04T12:08:37.965Z,31.28
2022-09-04T12:11:40.762Z,32.24
2022-09-04T12:14:16.290Z,32.16
2022-09-04T12:17:17.363Z,31.89
2022-09-04T12:20:07.963Z,31.66
2022-09-04T12:22:50.145Z,31.77
2022-09-04T12:25:34.979Z,31.64
2022-09-04T12:28:19.512Z,30.29
2022-09-04T12:31:09.185Z,31.33
2022-09-04T12:34:03.547Z,30.11
2022-09-04T12:36:45.397Z,30.56
2022-09-04T12:39:41.311Z,30.93
2022-09-04T12:42:18.038Z,30.85
2022-09-04T12:45:07.091Z,31.04
2022-09-04T12:47:41.516Z,31.22
2022-09-04T12:50:28.219Z,31.54
2022-09-04T12:53:28.897Z,31.48
2022-09-04T12:56:10.086Z,31.09
2022-09-04T12:58:59.221Z,32.05
2022-09-04T13:01:51.411Z,31.55
2022-09-04T13:04:27.657Z,31.10
2022-09-04T13:07:25.366Z,30.78
2022-09-04T13:10:03.150Z,31.63
2022-09-04T13:12:49.059Z,31.41
2022-09-04T13:15:26.284Z,31.49
2022-09-04T13:18:08.576Z,31.50
2022-09-04T13:21:31.462Z,30.32
2022-09-04T13:24:19.587Z,31.23
2022-09-04T13:27:00.539Z,31.53
2022-09-04T13:29:44.780Z,31.17
2022-09-04T13:32:28.040Z,31.91
2022-09-04T13:35:17.311Z,31.68
2022-09-04T13:38:11.514Z,32.09
2022-09-04T13:40:46.011Z,31.97
2022-09-04T13:43:31.355Z,30.26
2022-09-04T13:46:02.788Z,31.14
2022-09-04T13:48:47.287Z,29.88
2022-09-04T13:51:18.353Z,30.24
2022-09-04T13:54:03.152Z,29.58
2022-09-04T13:57:20.977Z,29.15
2022-09-04T13:59:50.403Z,29.17
2022-09-04T14:02:24.411Z,28.27
2022-09-04T14:04:56.002Z,29.31
2022-09-04T14:07:26.949Z,28.79
2022-09-04T14:09:58.044Z,28.99
2022-09-04T14:12:53.828Z,29.44
2022-09-04T14:15:58.015Z,28.57
2022-09-04T14:18:34.408Z,28.92
2022-09-04T14:21:11.073Z,27.85
2022-09-04T14:24:04.593Z,27.72
2022-09-04T14:26:50.230Z,27.32
2022-09-04T14:29:44.376Z,27.65
2022-09-04T14:32:32.121Z,27.62
2022-09-04T14:35:12.722Z,27.99
2022-09-04T14:38:04.551Z,28.68
2022-09-04T14:40:36.929Z,29.67
2022-09-04T14:43:19.442Z,29.27
2022-09-04T14:46:02.508Z,29.22
2022-09-04T14:48:33.575Z,29.20
2022-09-04T14:51:14.484Z,29.06
2022-09-04T14:53:48.244Z,29.12
2022-09-04T14:56:22.039Z,29.52
2022-09-04T14:59:00.283Z,29.37
2022-09-04T15:01:31.260Z,29.54
2022-09-04T15:04:22.866Z,28.89
2022-09-04T15:07:12.729Z,29.10
2022-09-04T15:09:43.725Z,29.10
2022-09-04T15:12:27.422Z,27.98
2022-09-04T15:15:10.324Z,28.07
2022-09-04T15:17:49.583Z,27.70
2022-09-04T15:20:28.225Z,28.06
2022-09-04T15:22:59.305Z,28.10
2022-09-04T15:25:47.988Z,28.29
2022-09-04T15:28:27.493Z,28.13
2022-09-04T15:31:16.024Z,28.13
2022-09-04T15:33:45.700Z,28.50
2022-09-04T15:36:18.267Z,27.44
2022-09-04T15:38:52.244Z,28.21
2022-09-04T15:41:34.475Z,28.05
2022-09-04T15:44:08.446Z,28.63
2022-09-04T15:47:05.484Z,28.29
2022-09-04T15:49:54.477Z,28.06
2022-09-04T15:52:58.512Z,27.54
2022-09-04T15:55:33.738Z,26.81
2022-09-04T15:58:08.561Z,27.34
2022-09-04T16:00:38.498Z,26.84
2022-09-04T16:03:25.995Z,26.94
2022-09-04T16:05:59.040Z,27.65
2022-09-04T16:08:41.127Z,26.98
2022-09-04T16:11:32.137Z,27.36
2022-09-04T16:14:20.206Z,26.30
2022-09-04T16:16:55.248Z,26.04
2022-09-04T16:19:27.647Z,26.86
2022-09-04T16:22:23.303Z,27.79
2022-09-04T16:24:56.440Z,27.82
2022-09-04T16:27:26.374Z,27.09
2022-09-04T16:29:58.381Z,27.82
2022-09-04T16:32:28.734Z,28.79
2022-09-04T16:35:00.329Z,28.56
2022-09-04T16:37:42.401Z,28.83
2022-09-04T16:40:32.930Z,29.21
2022-09-04T16:43:15.292Z,29.90
2022-09-04T16:45:44.366Z,29.42
2022-09-04T16:48:34.057Z,29.31
2022-09-04T16:51:09.834Z,28.75
2022-09-04T16:54:08.730Z,29.26
2022-09-04T16:56:50.003Z,30.22
2022-09-04T17:00:03.654Z,30.94
2022-09-04T17:02:50.626Z,30.05
2022-09-04T17:05:28.744Z,28.82
2022-09-04T17:08:04.494Z,30.09
2022-09-04T17:10:49.639Z,29.54
2022-09-04T17:13:37.894Z,30.91
2022-09-04T17:16:19.427Z,31.08
2022-09-04T17:18:48.981Z,31.40
2022-09-04T17:23:59.429Z,31.15
2022-09-04T17:29:08.972Z,32.26
2022-09-04T17:29:11.935Z,33.53
2022-09-04T17:30:33.188Z,33.54
2022-09-04T17:39:47.770Z,33.68
2022-09-04T17:40:49.260Z,33.07
2022-09-04T17:41:31.065Z,32.76
2022-09-04T17:42:19.898Z,33.32
2022-09-04T17:45:28.530Z,33.16
2022-09-04T17:48:24.106Z,33.65
2022-09-04T17:50:58.191Z,33.82
2022-09-04T17:53:34.024Z,34.12
2022-09-04T17:56:25.970Z,34.77
2022-09-04T17:59:01.779Z,34.58
2022-09-04T18:01:46.240Z,34.93
2022-09-04T18:04:22.442Z,35.47
2022-09-04T18:07:27.424Z,35.39
2022-09-04T18:10:34.195Z,35.28
2022-09-04T18:13:37.877Z,35.72
2022-09-04T18:16:30.885Z,35.94
2022-09-04T18:19:15.479Z,36.46
2022-09-04T18:21:51.389Z,36.73
2022-09-04T18:24:51.185Z,36.90
2022-09-04T18:27:32.160Z,36.88
2022-09-04T18:37:05.457Z,36.69
2022-09-04T18:37:11.621Z,37.03
2022-09-04T18:37:20.117Z,37.50
2022-09-04T18:39:12.063Z,37.30
2022-09-04T18:45:57.831Z,36.98
2022-09-04T18:50:34.465Z,36.73
2022-09-04T18:50:50.391Z,37.21
2022-09-04T18:51:14.628Z,37.76
2022-09-04T18:53:50.437Z,37.98
2022-09-04T18:56:22.914Z,38.81
2022-09-04T18:59:02.085Z,38.33
2022-09-04T19:01:40.400Z,38.55
2022-09-04T19:04:19.333Z,39.42
2022-09-04T19:07:07.141Z,38.91
2022-09-04T19:10:05.746Z,38.87
2022-09-04T19:12:47.915Z,39.20
2022-09-04T19:15:59.582Z,39.88
2022-09-04T19:19:39.823Z,39.57
2022-09-04T19:23:15.469Z,39.21
2022-09-04T19:29:30.594Z,39.48
2022-09-04T19:31:59.755Z,39.33
2022-09-04T19:34:40.013Z,39.12
2022-09-04T19:37:20.456Z,39.01
2022-09-04T19:43:57.115Z,40.01
2022-09-04T19:46:02.152Z,40.44
2022-09-04T19:46:28.162Z,40.59
2022-09-04T19:50:57.077Z,41.10
2022-09-04T19:53:36.174Z,41.36
2022-09-04T19:55:25.158Z,41.65
2022-09-04T19:58:19.221Z,41.62
2022-09-04T20:00:59.411Z,41.25
2022-09-04T20:03:45.711Z,41.44
2022-09-04T20:06:26.261Z,41.79
2022-09-04T20:09:01.462Z,41.25
2022-09-04T20:11:39.810Z,41.47
2022-09-04T20:14:14.884Z,41.47
2022-09-04T20:17:24.767Z,41.12
2022-09-04T20:19:59.440Z,41.23
2022-09-04T20:22:37.297Z,41.56
2022-09-04T20:25:06.767Z,41.85
2022-09-04T20:27:52.280Z,41.89
2022-09-04T20:30:23.919Z,41.91
2022-09-04T20:33:13.830Z,42.16
2022-09-04T20:35:52.342Z,42.37
2022-09-04T20:38:43.290Z,41.87
2022-09-04T20:41:32.613Z,42.20
2022-09-04T20:44:13.771Z,41.99
2022-09-04T20:52:50.064Z,42.28
2022-09-04T20:52:50.366Z,41.92
2022-09-04T20:53:28.378Z,43.54
2022-09-04T20:58:11.331Z,44.40
2022-09-04T21:03:06.534Z,45.26
2022-09-04T21:03:20.863Z,44.85
2022-09-04T21:06:07.315Z,45.12
2022-09-04T21:08:46.070Z,44.55
2022-09-04T21:11:40.980Z,44.72
2022-09-04T21:14:16.335Z,44.97
2022-09-04T21:17:34.317Z,44.82
2022-09-04T21:20:23.079Z,44.78
2022-09-04T21:23:10.836Z,44.88
2022-09-04T21:26:09.801Z,44.74
2022-09-04T21:29:09.111Z,45.47
2022-09-04T21:32:15.504Z,45.38
2022-09-04T21:35:14.085Z,45.11
2022-09-04T21:38:08.802Z,44.98
2022-09-04T21:40:59.943Z,45.23
2022-09-04T21:43:35.602Z,45.27
2022-09-04T21:46:37.115Z,45.32
2022-09-04T21:49:13.214Z,45.56
2022-09-04T21:52:31.271Z,45.93
2022-09-04T21:58:19.907Z,45.95
2022-09-04T22:02:27.020Z,46.09
2022-09-04T22:02:49.591Z,46.11
2022-09-04T22:04:55.262Z,45.63
2022-09-04T22:12:07.737Z,46.22
2022-09-04T22:13:39.582Z,46.71
2022-09-04T22:13:42.340Z,47.13
2022-09-04T22:16:41.927Z,47.14
2022-09-04T22:19:27.543Z,47.33
2022-09-04T22:22:28.462Z,47.20
2022-09-04T22:25:10.979Z,47.38
2022-09-04T22:28:08.904Z,47.17
2022-09-04T22:30:42.142Z,47.21
2022-09-04T22:33:14.572Z,46.84
2022-09-04T22:35:53.142Z,47.16
2022-09-04T22:38:51.682Z,47.20
2022-09-04T22:41:42.089Z,47.43
2022-09-04T22:44:34.478Z,47.34
2022-09-04T22:47:27.780Z,48.20
2022-09-04T22:50:18.599Z,48.43
2022-09-04T22:53:15.436Z,49.06
2022-09-04T22:56:23.573Z,49.91
2022-09-04T22:58:51.175Z,50.58
2022-09-04T23:02:00.139Z,50.54
2022-09-04T23:04:45.418Z,50.32
2022-09-04T23:12:49.321Z,49.92
2022-09-04T23:13:48.350Z,48.87
2022-09-04T23:13:49.354Z,49.50
2022-09-04T23:16:41.781Z,49.45
2022-09-04T23:22:36.822Z,49.30
2022-09-04T23:26:45.676Z,49.44
2022-09-04T23:26:48.447Z,48.99
2022-09-04T23:29:20.686Z,49.14
2022-09-04T23:32:17.944Z,48.94
2022-09-04T23:35:35.109Z,48.95
2022-09-04T23:38:30.946Z,49.82
2022-09-04T23:41:12.236Z,50.02
2022-09-04T23:44:16.372Z,50.54
2022-09-04T23:47:48.391Z,51.08
2022-09-04T23:50:31.114Z,51.88
2022-09-04T23:53:12.814Z,52.19
2022-09-04T23:55:54.284Z,52.14
2022-09-04T23:58:58.257Z,52.21
